Time;durP1;ratioP1;P1;durP2;ratioP2;P2;SDS_P1;SDS_P2;PMS_P1;PMS_P2;Temp;Humidity;BMP_temperature;BMP_pressure;BME280_temperature;BME280_humidity;BME280_pressure;Samples;Min_cycle;Max_cycle;Signal;HPM_P1;HPM_P2
2022/01/22 00:01:57;;;;;;;13.40;8.02;;;;;;;;;;6182215;22;20587;-83
2022/01/22 00:04:24;;;;;;;13.70;8.52;;;;;;;;;;6211690;22;20028;-83
2022/01/22 00:06:52;;;;;;;14.38;8.20;;;;;;;;;;6186761;23;20016;-84
2022/01/22 00:09:18;;;;;;;12.82;7.90;;;;;;;;;;6192645;23;20108;-84
2022/01/22 00:11:52;;;;;;;11.13;7.57;;;;;;;;;;6185965;23;20013;-84
2022/01/22 00:14:27;;;;;;;10.77;7.32;;;;;;;;;;6194827;22;20024;-84
2022/01/22 00:16:56;;;;;;;10.82;7.28;;;;;;;;;;6217441;22;20020;-84
2022/01/22 00:19:25;;;;;;;11.65;7.63;;;;;;;;;;6215929;22;20016;-84
2022/01/22 00:21:53;;;;;;;14.55;7.28;;;;;;;;;;6240909;22;20019;-84
2022/01/22 00:24:20;;;;;;;13.23;7.60;;;;;;;;;;6215326;23;20039;-84
2022/01/22 00:26:47;;;;;;;10.88;7.35;;;;;;;;;;6240567;22;20020;-84
2022/01/22 00:29:13;;;;;;;8.95;6.80;;;;;;;;;;6214990;22;20358;-84
2022/01/22 00:31:41;;;;;;;10.82;7.40;;;;;;;;;;6235046;22;20047;-84
2022/01/22 00:34:07;;;;;;;12.60;7.78;;;;;;;;;;6205693;22;20383;-84
2022/01/22 00:36:35;;;;;;;13.38;7.78;;;;;;;;;;6187165;22;20100;-84
2022/01/22 00:39:01;;;;;;;10.80;7.93;;;;;;;;;;6181258;22;20473;-84
2022/01/22 00:41:27;;;;;;;12.23;7.53;;;;;;;;;;6206916;22;20023;-84
2022/01/22 00:43:55;;;;;;;11.88;7.03;;;;;;;;;;6186036;23;20040;-84
2022/01/22 00:46:22;;;;;;;12.27;8.18;;;;;;;;;;6189192;23;20381;-84
2022/01/22 00:48:47;;;;;;;13.70;7.45;;;;;;;;;;6183003;23;20024;-84
2022/01/22 00:51:13;;;;;;;11.68;7.45;;;;;;;;;;6208970;22;20319;-84
2022/01/22 00:53:39;;;;;;;13.65;7.65;;;;;;;;;;6209734;22;20078;-84
2022/01/22 00:56:05;;;;;;;11.55;7.35;;;;;;;;;;6209881;22;20020;-84
2022/01/22 00:58:30;;;;;;;13.75;8.05;;;;;;;;;;6190255;23;20016;-84
2022/01/22 01:00:58;;;;;;;13.02;7.43;;;;;;;;;;6208901;22;20068;-84
2022/01/22 01:03:24;;;;;;;11.35;7.18;;;;;;;;;;6181619;22;20023;-84
2022/01/22 01:05:49;;;;;;;11.30;7.20;;;;;;;;;;6208262;23;20024;-84
2022/01/22 01:08:17;;;;;;;12.85;7.55;;;;;;;;;;6210077;22;20087;-84
2022/01/22 01:10:45;;;;;;;11.50;6.95;;;;;;;;;;6239117;22;20871;-84
2022/01/22 01:13:13;;;;;;;10.88;7.30;;;;;;;;;;6212654;22;20040;-84
2022/01/22 01:15:57;;;;;;;11.23;6.97;;;;;;;;;;6206179;22;20055;-83
2022/01/22 01:32:10;;;;;;;10.18;6.43;;;;;;;;;;6240833;22;20027;-84
2022/01/22 01:34:41;;;;;;;7.20;5.65;;;;;;;;;;6216575;22;20020;-84
2022/01/22 01:37:12;;;;;;;8.80;6.30;;;;;;;;;;6216129;22;20020;-84
2022/01/22 01:39:39;;;;;;;10.68;6.53;;;;;;;;;;6203951;22;20024;-84
2022/01/22 01:42:09;;;;;;;9.98;6.65;;;;;;;;;;6241197;22;20338;-84
2022/01/22 01:44:39;;;;;;;11.70;6.63;;;;;;;;;;6210369;22;20020;-84
2022/01/22 01:47:07;;;;;;;10.38;6.47;;;;;;;;;;6225594;22;20066;-84
2022/01/22 01:49:33;;;;;;;10.13;5.93;;;;;;;;;;6236993;22;20052;-84
2022/01/22 01:52:03;;;;;;;8.93;5.85;;;;;;;;;;6213764;22;20020;-83
2022/01/22 01:55:02;;;;;;;9.68;5.88;;;;;;;;;;6212881;22;20020;-84
2022/01/22 01:57:48;;;;;;;8.20;5.60;;;;;;;;;;6222908;22;20024;-84
2022/01/22 02:00:17;;;;;;;7.75;5.38;;;;;;;;;;6219780;22;20020;-84
2022/01/22 02:02:46;;;;;;;7.68;4.75;;;;;;;;;;6241474;22;20030;-84
2022/01/22 02:05:13;;;;;;;6.63;4.70;;;;;;;;;;6215407;22;20016;-84
2022/01/22 02:07:42;;;;;;;7.78;5.45;;;;;;;;;;6204250;22;20111;-84
2022/01/22 02:10:12;;;;;;;7.25;5.07;;;;;;;;;;6209761;22;20507;-83
2022/01/22 02:23:42;;;;;;;4.90;3.90;;;;;;;;;;6242303;22;20123;-84
2022/01/22 02:26:11;;;;;;;5.95;4.07;;;;;;;;;;6217016;22;20449;-83
2022/01/22 02:28:39;;;;;;;6.30;4.28;;;;;;;;;;6215910;22;20020;-84
2022/01/22 02:34:13;;;;;;;7.20;4.80;;;;;;;;;;6226366;22;20449;-84
2022/01/22 02:36:54;;;;;;;7.32;4.90;;;;;;;;;;6222061;22;20118;-83
2022/01/22 02:39:35;;;;;;;7.75;4.53;;;;;;;;;;6219042;22;20103;-83
2022/01/22 02:42:00;;;;;;;8.50;5.40;;;;;;;;;;6218543;22;20042;-83
2022/01/22 02:44:33;;;;;;;7.53;5.25;;;;;;;;;;6215351;22;20016;-83
2022/01/22 02:47:06;;;;;;;7.20;5.28;;;;;;;;;;6216644;22;20078;-83
2022/01/22 02:49:34;;;;;;;8.40;5.22;;;;;;;;;;6212507;22;20024;-83
2022/01/22 02:52:03;;;;;;;7.35;5.50;;;;;;;;;;6214707;22;20661;-83
2022/01/22 02:54:29;;;;;;;7.57;5.72;;;;;;;;;;6206487;22;20012;-83
2022/01/22 02:56:55;;;;;;;8.45;5.30;;;;;;;;;;6214302;22;20035;-83
2022/01/22 02:59:23;;;;;;;10.77;5.82;;;;;;;;;;6215385;23;20384;-83
2022/01/22 03:01:50;;;;;;;10.90;5.57;;;;;;;;;;6215023;22;20020;-83
2022/01/22 03:04:16;;;;;;;9.77;6.00;;;;;;;;;;6215451;22;20027;-83
2022/01/22 03:06:43;;;;;;;10.85;6.07;;;;;;;;;;6215155;22;20016;-83
2022/01/22 03:09:11;;;;;;;9.05;6.13;;;;;;;;;;6215212;22;20012;-83
2022/01/22 03:20:05;;;;;;;11.10;5.75;;;;;;;;;;6241806;22;20096;-83
2022/01/22 03:23:06;;;;;;;8.13;5.35;;;;;;;;;;6218429;22;20490;-82
2022/01/22 03:28:01;;;;;;;11.93;5.97;;;;;;;;;;6239958;22;20023;-83
2022/01/22 03:30:27;;;;;;;8.13;5.47;;;;;;;;;;6215866;22;20024;-82
2022/01/22 03:32:55;;;;;;;7.75;5.50;;;;;;;;;;6210285;23;20015;-83
2022/01/22 03:37:51;;;;;;;9.23;5.55;;;;;;;;;;6238316;22;20018;-82
2022/01/22 03:40:21;;;;;;;8.43;5.28;;;;;;;;;;6237897;22;20019;-83
2022/01/22 03:42:47;;;;;;;11.25;5.78;;;;;;;;;;6241578;22;20012;-83
2022/01/22 03:45:13;;;;;;;9.68;5.72;;;;;;;;;;6216920;22;20078;-83
2022/01/22 03:47:40;;;;;;;8.43;5.18;;;;;;;;;;6216464;22;20555;-83
2022/01/22 03:50:09;;;;;;;8.30;4.93;;;;;;;;;;6217348;22;20016;-83
2022/01/22 03:52:35;;;;;;;13.57;5.28;;;;;;;;;;6242882;22;20087;-84
2022/01/22 03:55:02;;;;;;;9.43;5.47;;;;;;;;;;6215935;22;20020;-83
2022/01/22 03:57:27;;;;;;;10.40;5.53;;;;;;;;;;6233039;22;20015;-83
2022/01/22 03:59:55;;;;;;;10.35;5.10;;;;;;;;;;6213157;23;20074;-83
2022/01/22 04:05:07;;;;;;;11.07;5.50;;;;;;;;;;6241981;22;20432;-84
2022/01/22 04:10:12;;;;;;;9.60;4.13;;;;;;;;;;6240826;22;20070;-84
2022/01/22 04:15:16;;;;;;;5.22;3.40;;;;;;;;;;6242015;22;20505;-84
2022/01/22 04:25:56;;;;;;;7.90;3.47;;;;;;;;;;6210719;22;20031;-84
2022/01/22 04:28:28;;;;;;;8.15;3.30;;;;;;;;;;6199575;23;20025;-84
2022/01/22 04:30:54;;;;;;;6.07;2.90;;;;;;;;;;6190165;22;20012;-84
2022/01/22 04:33:20;;;;;;;6.55;2.88;;;;;;;;;;6186180;23;20055;-84
2022/01/22 04:35:45;;;;;;;6.00;2.80;;;;;;;;;;6185461;22;20343;-84
2022/01/22 04:38:11;;;;;;;7.40;2.90;;;;;;;;;;6183774;22;20017;-84
2022/01/22 04:40:37;;;;;;;7.10;3.00;;;;;;;;;;6185494;22;20028;-84
2022/01/22 04:43:04;;;;;;;4.70;2.85;;;;;;;;;;6209410;22;20079;-84
2022/01/22 04:48:26;;;;;;;7.38;3.35;;;;;;;;;;6210557;22;20091;-84
2022/01/22 04:56:22;;;;;;;8.73;3.47;;;;;;;;;;6214487;22;20027;-84
2022/01/22 04:58:48;;;;;;;6.72;3.25;;;;;;;;;;6207328;23;20012;-84
2022/01/22 05:01:14;;;;;;;6.13;3.60;;;;;;;;;;6185279;22;20028;-84
2022/01/22 05:03:39;;;;;;;9.85;3.88;;;;;;;;;;6184604;22;20106;-84
2022/01/22 05:06:06;;;;;;;6.75;3.80;;;;;;;;;;6183682;22;20447;-84
2022/01/22 05:08:33;;;;;;;6.35;3.95;;;;;;;;;;6184540;22;20112;-84
2022/01/22 05:10:59;;;;;;;10.98;4.32;;;;;;;;;;6183205;22;20013;-84
2022/01/22 05:13:26;;;;;;;12.02;3.67;;;;;;;;;;6183786;22;20410;-84
2022/01/22 05:15:51;;;;;;;7.53;3.92;;;;;;;;;;6210496;23;20026;-85
2022/01/22 05:18:17;;;;;;;6.80;4.07;;;;;;;;;;6189867;23;20454;-84
2022/01/22 05:20:51;;;;;;;14.85;3.67;;;;;;;;;;6209516;23;20025;-84
2022/01/22 05:23:21;;;;;;;9.38;3.63;;;;;;;;;;6185948;23;20016;-84
2022/01/22 05:26:01;;;;;;;7.25;3.50;;;;;;;;;;6209531;23;20051;-84
2022/01/22 05:39:24;;;;;;;11.73;4.22;;;;;;;;;;6210324;22;20407;-84
2022/01/22 05:41:50;;;;;;;7.63;4.15;;;;;;;;;;6182948;23;20016;-84
2022/01/22 05:44:16;;;;;;;9.65;4.10;;;;;;;;;;6208602;22;20132;-84
2022/01/22 05:46:42;;;;;;;9.48;4.03;;;;;;;;;;6209900;22;20095;-84
2022/01/22 05:49:08;;;;;;;10.32;4.53;;;;;;;;;;6183572;22;20020;-84
2022/01/22 05:51:36;;;;;;;8.68;4.43;;;;;;;;;;6185951;22;20076;-84
2022/01/22 05:59:38;;;;;;;8.48;4.25;;;;;;;;;;6205762;22;20023;-84
2022/01/22 06:02:15;;;;;;;8.70;4.28;;;;;;;;;;6189687;22;20021;-84
2022/01/22 06:04:45;;;;;;;7.90;4.30;;;;;;;;;;6182028;22;20035;-84
2022/01/22 06:07:12;;;;;;;6.72;3.88;;;;;;;;;;6184351;22;20350;-84
2022/01/22 06:09:43;;;;;;;9.40;4.20;;;;;;;;;;6182979;22;20023;-84
2022/01/22 08:43:40;;;;;;;8.93;4.30;;;;;;;;;;6271865;22;20088;-85
2022/01/22 08:46:09;;;;;;;9.25;4.00;;;;;;;;;;6244032;22;20512;-85
2022/01/22 08:48:40;;;;;;;7.55;4.57;;;;;;;;;;6261450;22;20016;-86
2022/01/22 08:51:20;;;;;;;6.32;3.83;;;;;;;;;;6213565;22;20017;-85
2022/01/22 08:53:48;;;;;;;9.05;3.90;;;;;;;;;;6187110;22;20016;-86
2022/01/22 08:56:14;;;;;;;8.95;4.10;;;;;;;;;;6261763;22;20027;-86
2022/01/22 08:58:45;;;;;;;12.23;3.95;;;;;;;;;;6227039;22;20015;-85
2022/01/22 09:01:16;;;;;;;9.90;4.68;;;;;;;;;;6270016;22;20040;-85
2022/01/22 09:03:42;;;;;;;8.07;4.18;;;;;;;;;;6191927;22;20020;-85
2022/01/22 09:06:08;;;;;;;8.88;3.85;;;;;;;;;;6240651;22;20054;-85
2022/01/22 09:08:38;;;;;;;8.63;4.68;;;;;;;;;;6246520;22;20027;-85
2022/01/22 09:11:07;;;;;;;7.15;4.43;;;;;;;;;;6271430;22;20449;-85
2022/01/22 09:13:53;;;;;;;8.55;3.67;;;;;;;;;;6227859;22;20030;-86
2022/01/22 09:17:03;;;;;;;;;;;;;;;;;;;;;
2022/01/22 09:19:36;;;;;;;8.10;3.08;;;;;;;;;;6257447;22;20944;-87
2022/01/22 09:22:20;;;;;;;7.95;3.28;;;;;;;;;;6193427;22;20026;-87
2022/01/22 09:25:19;;;;;;;8.25;3.05;;;;;;;;;;6206310;22;20026;-87
2022/01/22 09:28:08;;;;;;;5.22;2.75;;;;;;;;;;6222488;22;20079;-88
2022/01/22 09:31:11;;;;;;;10.35;2.80;;;;;;;;;;6272256;22;20575;-87
2022/01/22 09:33:39;;;;;;;9.18;2.80;;;;;;;;;;6230191;22;20578;-86
2022/01/22 09:36:12;;;;;;;7.78;3.05;;;;;;;;;;6247363;22;20045;-85
2022/01/22 09:38:40;;;;;;;5.07;3.20;;;;;;;;;;6234553;22;20016;-86
2022/01/22 09:41:08;;;;;;;4.60;2.17;;;;;;;;;;6193094;22;20097;-86
2022/01/22 09:43:40;;;;;;;6.18;2.92;;;;;;;;;;6281081;22;20019;-86
2022/01/22 09:46:13;;;;;;;5.22;2.42;;;;;;;;;;6230736;22;20024;-86
2022/01/22 09:48:52;;;;;;;6.75;3.28;;;;;;;;;;6250361;22;20348;-85
2022/01/22 09:51:39;;;;;;;6.25;2.58;;;;;;;;;;6267334;22;20035;-86
2022/01/22 09:54:14;;;;;;;6.63;2.90;;;;;;;;;;6231172;22;20043;-85
2022/01/22 09:56:48;;;;;;;5.25;2.17;;;;;;;;;;6234048;22;20024;-86
2022/01/22 10:00:12;;;;;;;8.20;3.20;;;;;;;;;;6260735;22;20011;-86
2022/01/22 10:02:46;;;;;;;7.40;2.35;;;;;;;;;;6237390;22;20102;-85
2022/01/22 10:20:47;;;;;;;5.40;1.92;;;;;;;;;;6020544;23;20045;-86
2022/01/22 10:24:02;;;;;;;4.47;1.63;;;;;;;;;;6015087;23;20038;-85
2022/01/22 10:30:11;;;;;;;4.53;1.58;;;;;;;;;;5990750;23;20548;-86
2022/01/22 10:32:47;;;;;;;3.55;1.60;;;;;;;;;;6122467;22;20012;-85
2022/01/22 10:35:22;;;;;;;4.07;2.10;;;;;;;;;;6234450;22;20023;-86
2022/01/22 10:37:57;;;;;;;3.42;1.20;;;;;;;;;;6244904;22;20069;-86
2022/01/22 10:40:27;;;;;;;3.60;1.30;;;;;;;;;;6245517;22;20016;-85
2022/01/22 10:43:34;;;;;;;2.50;0.98;;;;;;;;;;6246774;22;20023;-85
2022/01/22 10:46:31;;;;;;;3.83;1.42;;;;;;;;;;6259483;22;20362;-85
2022/01/22 10:49:09;;;;;;;2.60;1.55;;;;;;;;;;6271382;22;20022;-85
2022/01/22 10:51:56;;;;;;;4.25;1.60;;;;;;;;;;6245634;22;20019;-85
2022/01/22 10:54:24;;;;;;;3.42;1.58;;;;;;;;;;6244266;22;20804;-86
2022/01/22 10:56:50;;;;;;;4.20;1.67;;;;;;;;;;6246589;22;20545;-86
2022/01/22 10:59:18;;;;;;;2.90;1.40;;;;;;;;;;6246585;22;20061;-86
2022/01/22 11:01:59;;;;;;;3.53;1.38;;;;;;;;;;6244699;22;20015;-85
2022/01/22 11:04:27;;;;;;;3.50;1.55;;;;;;;;;;6244854;22;20016;-86
2022/01/22 11:06:58;;;;;;;5.03;1.75;;;;;;;;;;6244288;22;20122;-85
2022/01/22 11:09:24;;;;;;;2.90;1.75;;;;;;;;;;6246070;22;20023;-86
2022/01/22 11:11:51;;;;;;;3.70;1.35;;;;;;;;;;6271003;22;20086;-86
2022/01/22 11:14:18;;;;;;;5.55;1.85;;;;;;;;;;6270494;22;20024;-86
2022/01/22 11:16:45;;;;;;;3.95;1.35;;;;;;;;;;6245151;22;20388;-86
2022/01/22 11:19:14;;;;;;;3.42;1.50;;;;;;;;;;6244738;22;20388;-86
2022/01/22 11:21:44;;;;;;;4.70;1.35;;;;;;;;;;6245122;22;20141;-86
2022/01/22 11:24:12;;;;;;;2.47;1.20;;;;;;;;;;6246952;22;20035;-86
2022/01/22 11:26:39;;;;;;;1.85;1.30;;;;;;;;;;6245859;22;20022;-86
2022/01/22 11:29:06;;;;;;;2.67;1.17;;;;;;;;;;6272104;22;20015;-85
2022/01/22 11:31:34;;;;;;;2.63;1.73;;;;;;;;;;6246668;22;20020;-85
2022/01/22 11:34:01;;;;;;;4.25;1.77;;;;;;;;;;6245503;22;20035;-85
2022/01/22 11:36:35;;;;;;;4.05;1.92;;;;;;;;;;6246798;22;20019;-85
2022/01/22 11:39:04;;;;;;;2.95;2.30;;;;;;;;;;6245168;22;20086;-85
2022/01/22 11:41:30;;;;;;;2.67;1.48;;;;;;;;;;6244837;22;20353;-85
2022/01/22 11:44:09;;;;;;;2.53;1.27;;;;;;;;;;6244612;22;20066;-86
2022/01/22 11:46:38;;;;;;;4.22;2.08;;;;;;;;;;6271099;22;20403;-85
2022/01/22 11:49:22;;;;;;;4.57;1.88;;;;;;;;;;6243620;22;20023;-86
2022/01/22 11:51:55;;;;;;;6.13;3.05;;;;;;;;;;6228796;22;20126;-85
2022/01/22 11:54:23;;;;;;;4.40;2.60;;;;;;;;;;6272126;22;20303;-85
2022/01/22 11:56:53;;;;;;;7.30;4.47;;;;;;;;;;6231257;22;20023;-83
2022/01/22 11:59:26;;;;;;;6.85;3.50;;;;;;;;;;6231446;22;20521;-85
2022/01/22 12:02:35;;;;;;;6.82;2.60;;;;;;;;;;6244964;22;20015;-85
2022/01/22 12:05:04;;;;;;;5.68;2.58;;;;;;;;;;6246054;22;20027;-84
2022/01/22 12:07:35;;;;;;;5.55;2.88;;;;;;;;;;6267785;22;20045;-84
2022/01/22 12:10:35;;;;;;;4.57;1.92;;;;;;;;;;6229118;22;20027;-85
2022/01/22 12:16:11;;;;;;;2.25;1.60;;;;;;;;;;6253613;22;20035;-85
2022/01/22 12:18:47;;;;;;;5.05;3.60;;;;;;;;;;6244297;22;20011;-85
2022/01/22 12:21:39;;;;;;;4.13;2.10;;;;;;;;;;6230437;22;20021;-86
2022/01/22 12:24:08;;;;;;;4.25;1.80;;;;;;;;;;6263114;22;20019;-84
2022/01/22 12:26:40;;;;;;;8.77;3.80;;;;;;;;;;6207538;22;20046;-84
2022/01/22 12:29:27;;;;;;;10.70;6.85;;;;;;;;;;6231857;22;20011;-83
2022/01/22 12:32:13;;;;;;;10.38;5.90;;;;;;;;;;6259138;22;20415;-83
2022/01/22 12:35:01;;;;;;;7.28;6.00;;;;;;;;;;6233999;22;20022;-84
2022/01/22 12:37:30;;;;;;;4.50;1.95;;;;;;;;;;6243242;22;20767;-84
2022/01/22 12:39:57;;;;;;;5.45;1.85;;;;;;;;;;6244087;22;20140;-84
2022/01/22 12:42:46;;;;;;;4.85;1.98;;;;;;;;;;6240351;22;20055;-84
2022/01/22 12:45:13;;;;;;;3.33;1.67;;;;;;;;;;6243084;22;20019;-84
2022/01/22 12:47:46;;;;;;;18.38;10.20;;;;;;;;;;6241009;22;20097;-84
2022/01/22 12:50:12;;;;;;;44.45;20.42;;;;;;;;;;6244076;22;20445;-84
2022/01/22 12:52:46;;;;;;;41.05;19.23;;;;;;;;;;6240968;22;20031;-84
2022/01/22 12:55:17;;;;;;;3.45;2.60;;;;;;;;;;6226394;22;20345;-84
2022/01/22 12:57:43;;;;;;;5.40;2.88;;;;;;;;;;6238828;22;20015;-84
2022/01/22 13:00:13;;;;;;;7.18;3.50;;;;;;;;;;6242343;22;20045;-84
2022/01/22 13:02:44;;;;;;;5.20;2.85;;;;;;;;;;6243509;22;20039;-84
2022/01/22 13:05:15;;;;;;;6.88;3.35;;;;;;;;;;6244035;22;20020;-84
2022/01/22 13:07:43;;;;;;;6.70;2.70;;;;;;;;;;6242664;22;20497;-85
2022/01/22 13:10:10;;;;;;;5.40;3.13;;;;;;;;;;6243844;22;20073;-83
2022/01/22 13:12:37;;;;;;;8.68;3.92;;;;;;;;;;6244145;22;20026;-83
2022/01/22 13:15:05;;;;;;;9.25;3.78;;;;;;;;;;6246516;22;20026;-84
2022/01/22 13:17:32;;;;;;;6.40;3.40;;;;;;;;;;6244154;22;20067;-83
2022/01/22 13:19:59;;;;;;;6.70;3.35;;;;;;;;;;6243451;22;20185;-84
2022/01/22 13:22:33;;;;;;;9.32;3.38;;;;;;;;;;6242219;22;20047;-84
2022/01/22 13:25:07;;;;;;;6.38;2.90;;;;;;;;;;6243826;22;20077;-83
2022/01/22 13:27:37;;;;;;;9.13;2.75;;;;;;;;;;6243229;22;20012;-83
2022/01/22 13:30:09;;;;;;;4.47;2.10;;;;;;;;;;6243387;22;20026;-82
2022/01/22 13:32:51;;;;;;;4.22;3.00;;;;;;;;;;6244106;22;20011;-84
2022/01/22 13:38:33;;;;;;;4.03;2.70;;;;;;;;;;6270689;22;20019;-83
2022/01/22 13:45:06;;;;;;;5.57;2.38;;;;;;;;;;6250713;22;20020;-83
2022/01/22 13:49:26;;;;;;;5.72;2.13;;;;;;;;;;6271405;22;20030;-84
2022/01/22 13:51:54;;;;;;;7.25;3.03;;;;;;;;;;6244059;22;20023;-84
2022/01/22 13:54:27;;;;;;;4.38;2.42;;;;;;;;;;6245123;22;20558;-84
2022/01/22 13:56:57;;;;;;;3.53;2.30;;;;;;;;;;6245222;22;20019;-84
2022/01/22 13:59:26;;;;;;;3.97;2.30;;;;;;;;;;6246456;22;20015;-84
2022/01/22 14:02:11;;;;;;;6.47;3.83;;;;;;;;;;6241479;22;20066;-84
2022/01/22 14:04:45;;;;;;;4.35;2.75;;;;;;;;;;6246433;22;20043;-83
2022/01/22 14:07:34;;;;;;;4.00;2.60;;;;;;;;;;6267079;22;20015;-84
2022/01/22 14:10:20;;;;;;;7.43;3.00;;;;;;;;;;6244538;22;20019;-85
2022/01/22 14:12:48;;;;;;;6.32;3.22;;;;;;;;;;6243193;22;20440;-84
2022/01/22 14:15:17;;;;;;;6.53;3.47;;;;;;;;;;6269555;22;20016;-83
2022/01/22 14:18:22;;;;;;;7.07;3.20;;;;;;;;;;6268741;22;20456;-84
2022/01/22 14:21:08;;;;;;;5.45;2.50;;;;;;;;;;6269015;22;20397;-85
2022/01/22 14:23:36;;;;;;;6.60;3.72;;;;;;;;;;6260922;22;20044;-85
2022/01/22 14:26:18;;;;;;;7.88;3.13;;;;;;;;;;6243747;22;20098;-85
2022/01/22 14:28:54;;;;;;;6.32;3.13;;;;;;;;;;6268384;22;20092;-85
2022/01/22 14:31:30;;;;;;;3.92;2.20;;;;;;;;;;6243851;22;20028;-85
2022/01/22 14:34:05;;;;;;;7.10;3.70;;;;;;;;;;6243820;22;20012;-84
2022/01/22 14:36:48;;;;;;;5.45;4.35;;;;;;;;;;6244316;22;20091;-86
2022/01/22 14:44:40;;;;;;;6.63;3.50;;;;;;;;;;6270945;22;20015;-85
2022/01/22 14:47:16;;;;;;;7.60;4.63;;;;;;;;;;6245563;22;20468;-86
2022/01/22 14:49:46;;;;;;;8.30;3.90;;;;;;;;;;6243717;22;20099;-85
2022/01/22 14:52:13;;;;;;;6.38;3.15;;;;;;;;;;6244286;22;20067;-85
2022/01/22 14:54:41;;;;;;;7.63;3.58;;;;;;;;;;6246054;22;20734;-85
2022/01/22 14:57:09;;;;;;;8.48;3.35;;;;;;;;;;6245360;22;20023;-85
2022/01/22 14:59:36;;;;;;;5.90;3.15;;;;;;;;;;6244907;22;20533;-84
2022/01/22 15:02:02;;;;;;;6.35;3.17;;;;;;;;;;6244218;22;20030;-84
2022/01/22 15:04:28;;;;;;;6.82;3.50;;;;;;;;;;6245308;22;20058;-84
2022/01/22 15:06:54;;;;;;;6.95;3.28;;;;;;;;;;6245814;22;20028;-84
2022/01/22 15:09:20;;;;;;;7.35;3.40;;;;;;;;;;6240156;22;20020;-84
2022/01/22 15:11:46;;;;;;;5.32;3.38;;;;;;;;;;6271884;22;20041;-83
2022/01/22 15:14:12;;;;;;;7.15;3.10;;;;;;;;;;6244946;22;20075;-83
2022/01/22 15:16:49;;;;;;;9.60;3.45;;;;;;;;;;6245933;22;20016;-85
2022/01/22 15:19:19;;;;;;;5.10;4.10;;;;;;;;;;6246662;22;20078;-85
2022/01/22 15:21:47;;;;;;;6.80;4.38;;;;;;;;;;6245068;22;20067;-84
2022/01/22 15:24:13;;;;;;;7.95;5.00;;;;;;;;;;6242306;22;20494;-83
2022/01/22 15:26:39;;;;;;;13.70;5.68;;;;;;;;;;6243840;22;20046;-85
2022/01/22 15:29:07;;;;;;;5.32;4.28;;;;;;;;;;6243264;22;20464;-85
2022/01/22 15:31:36;;;;;;;8.63;4.05;;;;;;;;;;6268223;22;20054;-82
2022/01/22 15:34:11;;;;;;;8.75;4.03;;;;;;;;;;6243911;22;20023;-83
2022/01/22 15:36:38;;;;;;;5.95;3.53;;;;;;;;;;6241772;22;20031;-83
2022/01/22 15:39:06;;;;;;;7.30;3.80;;;;;;;;;;6235144;22;20022;-84
2022/01/22 15:41:33;;;;;;;9.52;4.47;;;;;;;;;;6241542;22;20036;-84
2022/01/22 15:44:00;;;;;;;5.65;3.70;;;;;;;;;;6242082;22;20122;-84
2022/01/22 15:46:26;;;;;;;8.07;3.08;;;;;;;;;;6241994;22;20050;-84
2022/01/22 15:48:51;;;;;;;4.43;2.95;;;;;;;;;;6239948;22;20012;-85
2022/01/22 15:51:17;;;;;;;7.82;3.13;;;;;;;;;;6242662;22;20023;-83
2022/01/22 15:53:43;;;;;;;7.68;4.00;;;;;;;;;;6268421;22;20046;-84
2022/01/22 15:56:09;;;;;;;8.38;5.57;;;;;;;;;;6242681;22;20094;-84
2022/01/22 15:58:35;;;;;;;6.75;3.75;;;;;;;;;;6243276;22;20023;-85
2022/01/22 16:01:00;;;;;;;5.18;3.30;;;;;;;;;;6266956;22;20027;-84
2022/01/22 16:03:27;;;;;;;7.50;3.90;;;;;;;;;;6244281;22;20136;-84
2022/01/22 16:05:57;;;;;;;8.35;4.43;;;;;;;;;;6244854;22;20028;-85
2022/01/22 16:08:23;;;;;;;9.20;5.40;;;;;;;;;;6243193;22;20019;-84
2022/01/22 16:10:49;;;;;;;17.63;6.53;;;;;;;;;;6242266;22;20570;-85
2022/01/22 16:13:16;;;;;;;12.85;7.10;;;;;;;;;;6241658;22;20015;-85
2022/01/22 16:15:42;;;;;;;12.40;6.85;;;;;;;;;;6243698;22;20019;-83
2022/01/22 16:18:07;;;;;;;13.05;7.72;;;;;;;;;;6242083;22;20065;-84
2022/01/22 16:20:33;;;;;;;14.93;9.02;;;;;;;;;;6243890;22;20020;-84
2022/01/22 16:22:59;;;;;;;20.98;10.63;;;;;;;;;;6243107;22;20058;-84
2022/01/22 16:25:25;;;;;;;14.85;9.68;;;;;;;;;;6269119;22;20023;-84
2022/01/22 16:27:50;;;;;;;16.08;9.23;;;;;;;;;;6242323;22;20088;-83
2022/01/22 16:30:16;;;;;;;19.73;11.95;;;;;;;;;;6269711;22;20046;-84
2022/01/22 16:32:43;;;;;;;14.07;10.48;;;;;;;;;;6242112;22;20067;-84
2022/01/22 16:35:08;;;;;;;16.38;9.98;;;;;;;;;;6269484;22;20086;-83
2022/01/22 16:37:36;;;;;;;13.15;7.35;;;;;;;;;;6242880;22;20381;-83
2022/01/22 16:40:05;;;;;;;12.05;5.45;;;;;;;;;;6243580;22;20203;-84
2022/01/22 16:42:39;;;;;;;11.57;5.18;;;;;;;;;;6242230;22;20349;-83
2022/01/22 16:45:44;;;;;;;11.93;5.53;;;;;;;;;;6243057;22;20023;-84
2022/01/22 16:54:06;;;;;;;10.48;6.00;;;;;;;;;;6277090;22;20029;-83
2022/01/22 16:56:20;;;;;;;11.68;7.43;;;;;;;;;;6277227;22;20014;-85
2022/01/22 16:58:49;;;;;;;10.30;6.93;;;;;;;;;;6283359;22;20507;-85
2022/01/22 17:01:25;;;;;;;8.77;5.72;;;;;;;;;;6254380;22;20414;-85
2022/01/22 17:03:54;;;;;;;7.72;5.00;;;;;;;;;;6265663;22;20061;-85
2022/01/22 17:06:29;;;;;;;8.80;4.45;;;;;;;;;;6249789;22;20464;-85
2022/01/22 17:09:07;;;;;;;6.80;3.60;;;;;;;;;;6227895;22;20061;-86
2022/01/22 17:14:09;;;;;;;8.82;4.70;;;;;;;;;;6255188;22;20015;-86
2022/01/22 17:14:19;;;;;;;20.67;12.70;;;;;;;;;;6278902;22;20037;-83
2022/01/22 17:16:44;;;;;;;12.88;7.38;;;;;;;;;;6247977;22;20460;-82
2022/01/22 17:19:10;;;;;;;9.35;5.80;;;;;;;;;;6275854;22;20516;-83
2022/01/22 17:21:36;;;;;;;10.27;6.03;;;;;;;;;;6248330;22;20364;-82
2022/01/22 17:24:01;;;;;;;10.82;4.55;;;;;;;;;;6245879;22;20019;-82
2022/01/22 17:26:27;;;;;;;7.65;4.13;;;;;;;;;;6247318;22;20023;-82
2022/01/22 17:28:53;;;;;;;6.45;4.13;;;;;;;;;;6245982;22;20538;-82
2022/01/22 17:31:21;;;;;;;5.93;3.97;;;;;;;;;;6246770;22;20106;-82
2022/01/22 17:33:50;;;;;;;9.75;4.32;;;;;;;;;;6250789;22;20019;-82
2022/01/22 17:36:17;;;;;;;7.10;4.07;;;;;;;;;;6246452;22;20460;-82
2022/01/22 17:38:43;;;;;;;5.30;3.92;;;;;;;;;;6246737;22;20015;-82
2022/01/22 17:41:11;;;;;;;10.05;4.35;;;;;;;;;;6247717;22;20015;-82
2022/01/22 17:43:38;;;;;;;8.85;3.90;;;;;;;;;;6248385;22;20038;-82
2022/01/22 17:46:05;;;;;;;5.93;3.58;;;;;;;;;;6248172;22;20038;-82
2022/01/22 17:48:33;;;;;;;6.30;3.53;;;;;;;;;;6244928;22;20023;-82
2022/01/22 17:51:00;;;;;;;7.43;4.53;;;;;;;;;;6249268;22;20034;-82
2022/01/22 17:53:27;;;;;;;7.22;4.03;;;;;;;;;;6247271;22;20460;-82
2022/01/22 17:55:54;;;;;;;11.35;6.18;;;;;;;;;;6249682;22;20019;-81
2022/01/22 17:58:20;;;;;;;12.57;6.72;;;;;;;;;;6249101;22;20077;-81
2022/01/22 18:00:47;;;;;;;15.10;6.95;;;;;;;;;;6274956;22;20061;-81
2022/01/22 18:03:13;;;;;;;11.95;8.30;;;;;;;;;;6249507;22;20018;-82
2022/01/22 18:05:39;;;;;;;9.10;6.30;;;;;;;;;;6249405;22;20290;-82
2022/01/22 18:08:05;;;;;;;11.43;6.03;;;;;;;;;;6248780;22;20019;-82
2022/01/22 18:10:34;;;;;;;11.52;9.00;;;;;;;;;;6247836;22;20058;-82
2022/01/22 18:13:00;;;;;;;14.50;10.60;;;;;;;;;;6273586;22;20494;-82
2022/01/22 18:15:26;;;;;;;15.57;9.70;;;;;;;;;;6272821;22;20031;-82
2022/01/22 18:17:52;;;;;;;16.23;9.45;;;;;;;;;;6248450;22;20225;-82
2022/01/22 18:20:18;;;;;;;18.63;9.73;;;;;;;;;;6247716;22;20026;-82
2022/01/22 18:22:44;;;;;;;13.68;8.77;;;;;;;;;;6247463;22;20470;-82
2022/01/22 18:25:11;;;;;;;17.58;11.30;;;;;;;;;;6249957;22;20042;-82
2022/01/22 18:27:37;;;;;;;21.73;10.95;;;;;;;;;;6249516;22;20113;-82
2022/01/22 18:30:05;;;;;;;21.73;14.13;;;;;;;;;;6246012;22;20019;-82
2022/01/22 18:32:31;;;;;;;17.00;11.55;;;;;;;;;;6244376;22;20976;-82
2022/01/22 18:34:56;;;;;;;17.85;12.90;;;;;;;;;;6246861;22;20026;-81
2022/01/22 18:37:22;;;;;;;16.15;10.77;;;;;;;;;;6246268;22;20461;-83
2022/01/22 18:39:55;;;;;;;14.75;9.73;;;;;;;;;;6250570;22;20027;-84
2022/01/22 18:42:21;;;;;;;13.30;8.48;;;;;;;;;;6237036;22;20069;-85
2022/01/22 18:45:01;;;;;;;12.02;7.10;;;;;;;;;;6215260;22;20015;-85
2022/01/22 18:47:28;;;;;;;14.60;7.20;;;;;;;;;;6246487;22;20423;-83
2022/01/22 18:49:54;;;;;;;14.68;6.70;;;;;;;;;;6193039;22;20047;-84
2022/01/22 18:52:20;;;;;;;11.38;6.40;;;;;;;;;;6197853;22;20020;-84
2022/01/22 18:54:51;;;;;;;12.10;6.28;;;;;;;;;;6186781;22;20058;-85
2022/01/22 18:57:22;;;;;;;15.25;6.95;;;;;;;;;;6202927;22;20334;-84
2022/01/22 18:59:48;;;;;;;13.88;7.60;;;;;;;;;;6246508;22;20024;-84
2022/01/22 19:02:14;;;;;;;16.05;7.95;;;;;;;;;;6217867;22;20042;-83
2022/01/22 19:04:48;;;;;;;14.55;7.40;;;;;;;;;;6190766;22;20020;-84
2022/01/22 19:07:21;;;;;;;11.10;8.10;;;;;;;;;;6199156;22;20016;-84
2022/01/22 19:10:00;;;;;;;12.85;7.90;;;;;;;;;;6196803;22;20453;-84
2022/01/22 19:12:29;;;;;;;12.73;7.50;;;;;;;;;;6195886;22;20373;-84
2022/01/22 19:15:11;;;;;;;12.90;7.25;;;;;;;;;;6242375;22;20019;-84
2022/01/22 19:17:57;;;;;;;13.88;7.53;;;;;;;;;;6206126;22;20503;-84
2022/01/22 19:20:33;;;;;;;13.13;5.45;;;;;;;;;;6203792;22;20075;-84
2022/01/22 19:28:31;;;;;;;25.25;14.77;;;;;;;;;;6217981;22;20018;-83
2022/01/22 19:30:59;;;;;;;20.35;12.50;;;;;;;;;;6191073;22;20016;-84
2022/01/22 19:33:25;;;;;;;19.52;12.52;;;;;;;;;;6216446;22;20357;-84
2022/01/22 19:35:55;;;;;;;12.02;8.00;;;;;;;;;;6201270;22;20019;-85
2022/01/22 19:38:24;;;;;;;16.45;9.77;;;;;;;;;;6214845;22;20068;-84
2022/01/22 19:40:52;;;;;;;19.95;9.15;;;;;;;;;;6216257;22;20022;-84
2022/01/22 19:43:19;;;;;;;15.95;8.20;;;;;;;;;;6215887;22;20469;-83